createdAt,value
2017-09-20T00:00:35.024Z,10.01
2017-09-20T00:01:35.322Z,10.05
2017-09-20T00:02:35.315Z,9.94
2017-09-20T00:03:35.306Z,9.93
2017-09-20T00:04:35.305Z,10.01
2017-09-20T00:05:35.286Z,9.96
2017-09-20T00:06:35.287Z,10.01
2017-09-20T00:07:35.283Z,9.93
2017-09-20T00:08:35.262Z,9.96
2017-09-20T00:09:35.259Z,9.96
2017-09-20T00:10:35.248Z,9.91
2017-09-20T00:11:35.236Z,9.9
2017-09-20T00:12:34.918Z,9.89
2017-09-20T00:13:35.216Z,9.93
2017-09-20T00:14:35.215Z,9.84
2017-09-20T00:15:34.894Z,9.93
2017-09-20T00:16:35.202Z,9.93
2017-09-20T00:17:35.182Z,9.87
2017-09-20T00:18:35.174Z,9.87
2017-09-20T00:19:35.166Z,9.84
2017-09-20T00:20:35.157Z,9.89
2017-09-20T00:21:35.147Z,9.87
2017-09-20T00:22:35.136Z,9.84
2017-09-20T00:23:35.125Z,9.91
2017-09-20T00:24:35.151Z,9.81
2017-09-20T00:25:35.115Z,9.83
2017-09-20T00:26:35.102Z,9.75
2017-09-20T00:27:35.097Z,9.79
2017-09-20T00:28:35.085Z,9.83
2017-09-20T00:29:35.075Z,9.68
2017-09-20T00:30:35.069Z,9.66
2017-09-20T00:31:35.055Z,9.78
2017-09-20T00:32:35.049Z,9.69
2017-09-20T00:33:35.037Z,9.71
2017-09-20T00:34:35.033Z,9.68
2017-09-20T00:35:35.056Z,9.61
2017-09-20T00:36:35.011Z,9.69
2017-09-20T00:37:35.002Z,9.6
2017-09-20T00:38:35.000Z,9.66
2017-09-20T00:39:34.985Z,9.61
2017-09-20T00:40:34.357Z,9.61
2017-09-20T00:41:34.967Z,9.64
2017-09-20T00:42:34.955Z,9.64
2017-09-20T00:43:34.951Z,9.6
2017-09-20T00:44:34.939Z,9.58
2017-09-20T00:45:34.934Z,9.6
2017-09-20T00:46:34.923Z,9.54
2017-09-20T00:47:34.915Z,9.57
2017-09-20T00:48:34.907Z,9.58
2017-09-20T00:49:34.896Z,9.58
2017-09-20T00:50:35.093Z,9.5
2017-09-20T00:51:34.875Z,9.53
2017-09-20T00:52:34.864Z,9.43
2017-09-20T00:53:34.860Z,9.51
2017-09-20T00:54:34.845Z,9.5
2017-09-20T00:55:34.842Z,9.48
2017-09-20T00:56:34.865Z,9.48
2017-09-20T00:57:34.824Z,9.53
2017-09-20T00:58:34.815Z,9.48
2017-09-20T00:59:34.800Z,9.43
2017-09-20T01:00:34.792Z,9.42
2017-09-20T01:01:34.784Z,9.42
2017-09-20T01:02:34.776Z,9.48
2017-09-20T01:03:34.766Z,9.4
2017-09-20T01:04:34.446Z,9.46
2017-09-20T01:05:34.438Z,9.43
2017-09-20T01:06:34.733Z,9.47
2017-09-20T01:07:34.726Z,9.42
2017-09-20T01:08:34.411Z,9.43
2017-09-20T01:09:34.403Z,9.5
2017-09-20T01:10:34.708Z,9.4
2017-09-20T01:11:34.695Z,9.39
2017-09-20T01:12:34.683Z,9.43
2017-09-20T01:13:34.672Z,9.39
2017-09-20T01:14:34.666Z,9.42
2017-09-20T01:15:34.658Z,9.4
2017-09-20T01:16:34.646Z,9.46
2017-09-20T01:17:34.632Z,9.35
2017-09-20T01:18:34.628Z,9.38
2017-09-20T01:19:34.612Z,9.4
2017-09-20T01:20:34.604Z,9.5
2017-09-20T01:21:34.596Z,9.47
2017-09-20T01:22:33.972Z,9.56
2017-09-20T01:23:34.268Z,9.43
2017-09-20T01:24:34.257Z,9.48
2017-09-20T01:25:34.256Z,9.43
2017-09-20T01:26:34.240Z,9.4
2017-09-20T01:27:34.544Z,9.39
2017-09-20T01:28:34.533Z,9.47
2017-09-20T01:29:34.522Z,9.39
2017-09-20T01:30:34.514Z,9.46
2017-09-20T01:31:34.199Z,9.47
2017-09-20T01:32:34.493Z,9.4
2017-09-20T01:33:34.482Z,9.39
2017-09-20T01:34:34.476Z,9.4
2017-09-20T01:35:34.467Z,9.43
2017-09-20T01:36:34.456Z,9.35
2017-09-20T01:37:34.449Z,9.31
2017-09-20T01:38:34.437Z,9.28
2017-09-20T01:39:34.428Z,9.29
2017-09-20T01:40:34.117Z,9.35
2017-09-20T01:41:34.411Z,9.32
2017-09-20T01:42:34.401Z,9.32
2017-09-20T01:43:34.395Z,9.26
2017-09-20T01:44:34.383Z,9.28
2017-09-20T01:45:34.373Z,9.31
2017-09-20T01:46:34.371Z,9.33
2017-09-20T01:47:34.044Z,9.32
2017-09-20T01:48:34.343Z,9.31
2017-09-20T01:49:34.338Z,9.35
2017-09-20T01:50:34.326Z,9.26
2017-09-20T01:51:34.316Z,9.2
2017-09-20T01:52:33.999Z,9.2
2017-09-20T01:53:33.993Z,9.18
2017-09-20T01:54:34.292Z,9.18
2017-09-20T01:55:34.280Z,9.2
2017-09-20T01:56:34.269Z,9.1
2017-09-20T01:57:34.257Z,9.21
2017-09-20T01:58:34.253Z,9.2
2017-09-20T01:59:34.241Z,9.24
2017-09-20T02:00:34.232Z,9.13
2017-09-20T02:01:33.915Z,9.24
2017-09-20T02:02:34.211Z,9.18
2017-09-20T02:03:33.594Z,9.18
2017-09-20T02:04:34.193Z,9.11
2017-09-20T02:05:34.184Z,9.11
2017-09-20T02:06:34.173Z,9.17
2017-09-20T02:07:34.171Z,9.21
2017-09-20T02:08:34.166Z,9.17
2017-09-20T02:09:34.145Z,9.13
2017-09-20T02:10:34.137Z,9.14
2017-09-20T02:11:33.821Z,9.11
2017-09-20T02:12:34.119Z,9.04
2017-09-20T02:13:34.108Z,9.05
2017-09-20T02:14:34.098Z,9.01
2017-09-20T02:15:34.086Z,8.99
2017-09-20T02:16:34.086Z,9.04
2017-09-20T02:17:34.075Z,9.05
2017-09-20T02:18:33.789Z,9.11
2017-09-20T02:19:33.744Z,9.01
2017-09-20T02:20:34.045Z,8.96
2017-09-20T02:21:34.035Z,9.08
2017-09-20T02:22:34.034Z,9.01
2017-09-20T02:23:34.051Z,8.99
2017-09-20T02:24:33.699Z,8.98
2017-09-20T02:25:33.996Z,9.01
2017-09-20T02:26:33.987Z,9.13
2017-09-20T02:27:33.670Z,9.01
2017-09-20T02:28:33.967Z,9.05
2017-09-20T02:29:33.992Z,9.1
2017-09-20T02:30:33.952Z,9.08
2017-09-20T02:31:33.935Z,8.99
2017-09-20T02:32:33.929Z,9.02
2017-09-20T02:33:33.919Z,9.1
2017-09-20T02:34:33.907Z,9.01
2017-09-20T02:35:33.900Z,9.01
2017-09-20T02:36:33.579Z,9.04
2017-09-20T02:37:33.892Z,8.98
2017-09-20T02:38:33.869Z,8.99
2017-09-20T02:39:33.861Z,8.99
2017-09-20T02:40:33.853Z,9.02
2017-09-20T02:41:33.839Z,9.02
2017-09-20T02:42:33.838Z,9.08
2017-09-20T02:43:33.822Z,8.95
2017-09-20T02:44:33.821Z,9.04
2017-09-20T02:45:33.504Z,8.96
2017-09-20T02:46:33.796Z,8.94
2017-09-20T02:47:33.476Z,9.02
2017-09-20T02:48:33.778Z,8.98
2017-09-20T02:49:33.457Z,8.96
2017-09-20T02:50:33.757Z,8.91
2017-09-20T02:51:33.749Z,8.89
2017-09-20T02:52:33.740Z,8.98
2017-09-20T02:53:33.725Z,8.91
2017-09-20T02:54:33.728Z,8.92
2017-09-20T02:55:33.707Z,8.83
2017-09-20T02:56:33.695Z,8.91
2017-09-20T02:57:33.375Z,8.87
2017-09-20T02:58:33.678Z,8.86
2017-09-20T02:59:33.048Z,8.92
2017-09-20T03:00:33.659Z,8.84
2017-09-20T03:01:33.650Z,8.87
2017-09-20T03:02:33.639Z,8.83
2017-09-20T03:03:33.638Z,8.81
2017-09-20T03:04:33.658Z,8.92
2017-09-20T03:05:33.617Z,8.83
2017-09-20T03:06:33.289Z,8.8
2017-09-20T03:07:33.283Z,8.89
2017-09-20T03:08:33.615Z,8.89
2017-09-20T03:09:33.574Z,8.81
2017-09-20T03:10:33.564Z,8.77
2017-09-20T03:11:33.551Z,8.8
2017-09-20T03:12:33.543Z,8.84
2017-09-20T03:13:33.533Z,8.83
2017-09-20T03:14:33.518Z,8.83
2017-09-20T03:15:33.517Z,8.86
2017-09-20T03:16:33.501Z,8.76
2017-09-20T03:17:33.497Z,8.8
2017-09-20T03:18:33.487Z,8.8
2017-09-20T03:19:33.476Z,8.8
2017-09-20T03:20:33.463Z,8.86
2017-09-20T03:21:33.454Z,8.76
2017-09-20T03:22:33.447Z,8.8
2017-09-20T03:23:33.435Z,8.77
2017-09-20T03:24:33.427Z,8.86
2017-09-20T03:25:33.418Z,8.8
2017-09-20T03:26:33.405Z,8.83
2017-09-20T03:27:33.403Z,8.81
2017-09-20T03:28:33.386Z,8.8
2017-09-20T03:29:33.376Z,8.76
2017-09-20T03:30:33.368Z,8.77
2017-09-20T03:31:33.368Z,8.83
2017-09-20T03:32:33.350Z,8.77
2017-09-20T03:33:33.336Z,8.77
2017-09-20T03:34:33.324Z,8.74
2017-09-20T03:35:33.318Z,8.77
2017-09-20T03:36:33.307Z,8.73
2017-09-20T03:37:32.986Z,8.77
2017-09-20T03:38:32.979Z,8.79
2017-09-20T03:39:33.278Z,8.71
2017-09-20T03:40:33.272Z,8.79
2017-09-20T03:41:32.954Z,8.81
2017-09-20T03:42:33.252Z,8.84
2017-09-20T03:43:32.933Z,8.83
2017-09-20T03:44:32.920Z,8.77
2017-09-20T03:45:33.230Z,8.81
2017-09-20T03:46:33.209Z,8.83
2017-09-20T03:47:33.201Z,8.66
2017-09-20T03:48:33.191Z,8.71
2017-09-20T03:49:33.183Z,8.7
2017-09-20T03:50:33.174Z,8.71
2017-09-20T03:51:33.168Z,8.73
2017-09-20T03:52:33.154Z,8.73
2017-09-20T03:53:32.840Z,8.73
2017-09-20T03:54:33.132Z,8.79
2017-09-20T03:55:33.126Z,8.73
2017-09-20T03:56:33.116Z,8.76
2017-09-20T03:57:33.113Z,8.77
2017-09-20T03:58:33.093Z,8.81
2017-09-20T03:59:32.776Z,8.76
2017-09-20T04:00:32.769Z,8.71
2017-09-20T04:01:32.755Z,8.63
2017-09-20T04:02:33.056Z,8.79
2017-09-20T04:03:32.735Z,8.79
2017-09-20T04:04:33.039Z,8.79
2017-09-20T04:05:32.714Z,8.71
2017-09-20T04:06:33.014Z,8.7
2017-09-20T04:07:32.697Z,8.74
2017-09-20T04:08:33.003Z,8.81
2017-09-20T04:09:32.989Z,8.71
2017-09-20T04:10:32.667Z,8.7
2017-09-20T04:11:32.970Z,8.77
2017-09-20T04:12:32.955Z,8.86
2017-09-20T04:13:32.950Z,8.81
2017-09-20T04:14:32.943Z,8.81
2017-09-20T04:15:32.928Z,8.77
2017-09-20T04:16:32.608Z,8.86
2017-09-20T04:17:32.913Z,8.92
2017-09-20T04:18:32.896Z,8.95
2017-09-20T04:19:32.893Z,8.98
2017-09-20T04:20:32.876Z,9.1
2017-09-20T04:21:32.867Z,9.1
2017-09-20T04:22:32.863Z,9.05
2017-09-20T04:23:32.852Z,9.1
2017-09-20T04:24:32.837Z,9.14
2017-09-20T04:25:32.828Z,9.26
2017-09-20T04:26:32.822Z,9.28
2017-09-20T04:27:32.812Z,9.38
2017-09-20T04:28:32.492Z,9.39
2017-09-20T04:29:32.794Z,9.46
2017-09-20T04:30:32.782Z,9.47
2017-09-20T04:31:32.782Z,9.51
2017-09-20T04:32:32.763Z,9.6
2017-09-20T04:33:32.761Z,9.71
2017-09-20T04:34:32.745Z,9.75
2017-09-20T04:35:32.729Z,9.86
2017-09-20T04:36:32.725Z,9.79
2017-09-20T04:37:32.714Z,10.01
2017-09-20T04:38:32.706Z,9.93
2017-09-20T04:39:32.692Z,10.04
2017-09-20T04:40:32.687Z,10.11
2017-09-20T04:41:32.677Z,10.22
2017-09-20T04:42:32.677Z,10.22
2017-09-20T04:43:32.659Z,10.33
2017-09-20T04:44:32.648Z,10.33
2017-09-20T04:45:32.637Z,10.33
2017-09-20T04:46:32.625Z,10.42
2017-09-20T04:47:32.622Z,10.47
2017-09-20T04:48:32.615Z,10.56
2017-09-20T04:49:32.599Z,10.56
2017-09-20T04:50:32.589Z,10.68
2017-09-20T04:51:32.277Z,10.76
2017-09-20T04:52:32.580Z,10.76
2017-09-20T04:53:32.566Z,10.76
2017-09-20T04:54:32.252Z,10.84
2017-09-20T04:55:32.559Z,10.94
2017-09-20T04:56:32.550Z,10.94
2017-09-20T04:57:32.537Z,10.92
2017-09-20T04:58:32.524Z,11.03
2017-09-20T04:59:32.518Z,11.15
2017-09-20T05:00:32.507Z,11.09
2017-09-20T05:01:32.496Z,11.21
2017-09-20T05:02:32.489Z,11.17
2017-09-20T05:03:32.488Z,11.25
2017-09-20T05:04:32.472Z,11.27
2017-09-20T05:05:32.466Z,11.25
2017-09-20T05:06:32.146Z,11.22
2017-09-20T05:07:32.446Z,11.32
2017-09-20T05:08:32.436Z,11.43
2017-09-20T05:09:32.430Z,11.37
2017-09-20T05:10:32.418Z,11.47
2017-09-20T05:11:32.416Z,11.44
2017-09-20T05:12:32.401Z,11.6
2017-09-20T05:13:32.088Z,11.58
2017-09-20T05:14:32.080Z,11.76
2017-09-20T05:15:32.382Z,11.72
2017-09-20T05:16:32.372Z,11.8
2017-09-20T05:17:32.052Z,11.85
2017-09-20T05:18:32.044Z,11.79
2017-09-20T05:19:32.038Z,11.85
2017-09-20T05:20:32.336Z,11.95
2017-09-20T05:21:32.332Z,11.91
2017-09-20T05:22:32.324Z,12.02
2017-09-20T05:23:32.316Z,12.04
2017-09-20T05:24:31.994Z,12.01
2017-09-20T05:25:32.297Z,12.1
2017-09-20T05:26:32.294Z,12.07
2017-09-20T05:27:32.283Z,12.09
2017-09-20T05:28:31.964Z,12.02
2017-09-20T05:29:32.261Z,12.02
2017-09-20T05:30:32.254Z,12.19
2017-09-20T05:31:32.252Z,12.1
2017-09-20T05:32:32.242Z,12.14
2017-09-20T05:33:32.236Z,12.17
2017-09-20T05:34:32.231Z,12.19
2017-09-20T05:35:32.214Z,12.28
2017-09-20T05:36:31.901Z,12.31
2017-09-20T05:37:32.199Z,12.29
2017-09-20T05:38:32.195Z,12.32
2017-09-20T05:39:32.185Z,12.34
2017-09-20T05:40:32.178Z,12.46
2017-09-20T05:41:32.173Z,12.42
2017-09-20T05:42:32.162Z,12.49
2017-09-20T05:43:32.155Z,12.47
2017-09-20T05:44:32.147Z,12.47
2017-09-20T05:45:32.138Z,12.49
2017-09-20T05:46:31.826Z,12.56
2017-09-20T05:47:32.123Z,12.65
2017-09-20T05:48:31.806Z,12.67
2017-09-20T05:49:32.112Z,12.65
2017-09-20T05:50:32.103Z,12.68
2017-09-20T05:51:32.093Z,12.65
2017-09-20T05:52:32.089Z,12.7
2017-09-20T05:53:32.081Z,12.72
2017-09-20T05:54:32.074Z,12.67
2017-09-20T05:55:31.757Z,12.74
2017-09-20T05:56:32.059Z,12.74
2017-09-20T05:57:31.745Z,12.72
2017-09-20T05:58:31.737Z,12.86
2017-09-20T05:59:31.728Z,12.82
2017-09-20T06:00:31.726Z,12.92
2017-09-20T06:01:32.057Z,12.9
2017-09-20T06:02:32.013Z,13.03
2017-09-20T06:03:32.006Z,12.96
2017-09-20T06:04:31.690Z,12.96
2017-09-20T06:05:31.995Z,13.01
2017-09-20T06:06:31.675Z,12.95
2017-09-20T06:07:31.668Z,13.05
2017-09-20T06:08:31.660Z,13.07
2017-09-20T06:09:31.966Z,13.1
2017-09-20T06:10:31.649Z,13.14
2017-09-20T06:11:31.642Z,13.11
2017-09-20T06:12:31.938Z,13.26
2017-09-20T06:13:31.625Z,13.17
2017-09-20T06:14:31.620Z,13.25
2017-09-20T06:15:31.921Z,13.2
2017-09-20T06:16:31.608Z,13.29
2017-09-20T06:17:31.598Z,13.36
2017-09-20T06:18:31.903Z,13.33
2017-09-20T06:19:31.584Z,13.44
2017-09-20T06:20:31.886Z,13.44
2017-09-20T06:21:31.262Z,13.52
2017-09-20T06:22:31.562Z,13.57
2017-09-20T06:23:31.248Z,13.54
2017-09-20T06:24:31.240Z,13.64
2017-09-20T06:25:31.232Z,13.67
2017-09-20T06:26:31.845Z,13.66
2017-09-20T06:27:31.221Z,13.7
2017-09-20T06:28:31.522Z,13.73
2017-09-20T06:29:31.516Z,13.82
2017-09-20T06:30:31.510Z,13.71
2017-09-20T06:31:31.502Z,13.77
2017-09-20T06:32:31.494Z,13.71
2017-09-20T06:33:31.488Z,13.7
2017-09-20T06:34:31.175Z,13.78
2017-09-20T06:35:31.783Z,13.73
2017-09-20T06:36:31.469Z,13.75
2017-09-20T06:37:31.768Z,13.81
2017-09-20T06:38:31.766Z,13.82
2017-09-20T06:39:31.447Z,13.78
2017-09-20T06:40:31.441Z,13.84
2017-09-20T06:41:31.750Z,13.82
2017-09-20T06:42:31.738Z,13.89
2017-09-20T06:43:31.732Z,13.84
2017-09-20T06:44:31.721Z,13.92
2017-09-20T06:45:31.411Z,13.92
2017-09-20T06:46:31.711Z,13.92
2017-09-20T06:47:31.394Z,14
2017-09-20T06:48:31.702Z,13.89
2017-09-20T06:49:31.382Z,14.03
2017-09-20T06:50:31.376Z,14.07
2017-09-20T06:51:31.369Z,14.14
2017-09-20T06:52:31.363Z,14.18
2017-09-20T06:53:31.356Z,14.21
2017-09-20T06:54:31.351Z,14.27
2017-09-20T06:55:31.346Z,14.4
2017-09-20T06:56:31.028Z,14.51
2017-09-20T06:57:31.642Z,14.57
2017-09-20T06:58:31.330Z,14.62
2017-09-20T06:59:31.320Z,14.72
2017-09-20T07:00:31.309Z,14.69
2017-09-20T07:01:31.616Z,14.78
2017-09-20T07:02:31.864Z,14.8
2017-09-20T07:03:31.605Z,14.78
2017-09-20T07:04:31.595Z,14.86
2017-09-20T07:05:31.593Z,14.78
2017-09-20T07:06:31.587Z,14.84
2017-09-20T07:07:31.582Z,14.86
2017-09-20T07:08:31.576Z,14.84
2017-09-20T07:09:31.570Z,14.92
2017-09-20T07:10:31.567Z,14.95
2017-09-20T07:11:31.563Z,14.95
2017-09-20T07:12:31.556Z,15.06
2017-09-20T07:13:31.551Z,15.09
2017-09-20T07:14:31.234Z,15.14
2017-09-20T07:15:31.540Z,15.23
2017-09-20T07:16:31.530Z,15.27
2017-09-20T07:17:31.529Z,15.46
2017-09-20T07:18:31.528Z,15.51
2017-09-20T07:19:31.512Z,15.68
2017-09-20T07:20:31.510Z,15.97
2017-09-20T07:21:31.505Z,16.21
2017-09-20T07:22:31.498Z,16.5
2017-09-20T07:23:31.494Z,16.78
2017-09-20T07:24:31.497Z,16.98
2017-09-20T07:25:31.181Z,17.16
2017-09-20T07:26:31.485Z,17.25
2017-09-20T07:27:31.489Z,17.54
2017-09-20T07:28:31.482Z,17.66
2017-09-20T07:29:31.477Z,17.71
2017-09-20T07:30:31.473Z,17.86
2017-09-20T07:31:31.474Z,17.78
2017-09-20T07:32:31.471Z,17.79
2017-09-20T07:33:31.460Z,17.77
2017-09-20T07:34:31.463Z,17.68
2017-09-20T07:35:31.148Z,17.64
2017-09-20T07:36:31.455Z,17.54
2017-09-20T07:37:31.152Z,17.48
2017-09-20T07:38:30.837Z,17.41
2017-09-20T07:39:31.454Z,17.4
2017-09-20T07:40:31.446Z,17.38
2017-09-20T07:41:31.439Z,17.38
2017-09-20T07:42:31.435Z,17.41
2017-09-20T07:43:31.862Z,17.59
2017-09-20T07:44:31.436Z,17.7
2017-09-20T07:45:31.126Z,17.66
2017-09-20T07:46:31.122Z,17.87
2017-09-20T07:47:31.124Z,17.89
2017-09-20T07:48:31.429Z,17.93
2017-09-20T07:49:31.425Z,18.08
2017-09-20T07:50:31.426Z,18.21
2017-09-20T07:51:31.423Z,18.2
2017-09-20T07:52:31.424Z,18.29
2017-09-20T07:53:31.420Z,18.35
2017-09-20T07:54:31.419Z,18.35
2017-09-20T07:55:31.421Z,18.3
2017-09-20T07:56:31.453Z,18.45
2017-09-20T07:57:31.112Z,18.55
2017-09-20T07:58:30.799Z,18.45
2017-09-20T07:59:31.417Z,18.51
2017-09-20T08:00:31.418Z,18.58
2017-09-20T08:01:31.427Z,18.6
2017-09-20T08:02:31.107Z,18.52
2017-09-20T08:03:30.800Z,18.41
2017-09-20T08:04:31.417Z,18.52
2017-09-20T08:05:30.799Z,18.55
2017-09-20T08:06:31.113Z,18.54
2017-09-20T08:07:31.108Z,18.45
2017-09-20T08:08:31.422Z,18.35
2017-09-20T08:09:31.415Z,18.41
2017-09-20T08:10:31.413Z,18.3
2017-09-20T08:11:31.411Z,18.29
2017-09-20T08:12:31.409Z,18.21
2017-09-20T08:13:31.409Z,18.18
2017-09-20T08:14:31.100Z,18.12
2017-09-20T08:15:31.404Z,18.12
2017-09-20T08:16:31.403Z,18.02
2017-09-20T08:17:31.399Z,18
2017-09-20T08:18:31.090Z,17.93
2017-09-20T08:19:31.393Z,17.82
2017-09-20T08:20:31.396Z,17.87
2017-09-20T08:21:31.391Z,17.92
2017-09-20T08:22:31.395Z,17.87
2017-09-20T08:23:31.386Z,17.89
2017-09-20T08:24:31.382Z,17.78
2017-09-20T08:25:31.381Z,17.77
2017-09-20T08:26:31.392Z,17.77
2017-09-20T08:27:31.378Z,17.7
2017-09-20T08:28:31.372Z,17.63
2017-09-20T08:29:31.373Z,17.68
2017-09-20T08:30:31.368Z,17.84
2017-09-20T08:31:31.367Z,17.79
2017-09-20T08:32:31.049Z,17.99
2017-09-20T08:33:31.052Z,18.08
2017-09-20T08:34:31.359Z,18.17
2017-09-20T08:35:31.353Z,18.21
2017-09-20T08:36:31.349Z,18.27
2017-09-20T08:37:31.039Z,18.52
2017-09-20T08:38:31.340Z,18.5
2017-09-20T08:39:31.033Z,18.55
2017-09-20T08:40:31.027Z,18.66
2017-09-20T08:41:31.335Z,18.66
2017-09-20T08:42:31.023Z,18.7
2017-09-20T08:43:31.331Z,18.76
2017-09-20T08:44:31.019Z,18.8
2017-09-20T08:45:31.051Z,18.8
2017-09-20T08:46:31.322Z,18.8
2017-09-20T08:47:31.329Z,18.98
2017-09-20T08:48:31.319Z,18.94
2017-09-20T08:49:31.309Z,19.02
2017-09-20T08:50:31.003Z,18.98
2017-09-20T08:51:30.997Z,19.1
2017-09-20T08:52:31.303Z,19.02
2017-09-20T08:53:30.996Z,18.98
2017-09-20T08:54:30.988Z,18.87
2017-09-20T08:55:31.298Z,18.94
2017-09-20T08:56:31.546Z,18.88
2017-09-20T08:57:30.985Z,18.81
2017-09-20T08:58:30.979Z,18.82
2017-09-20T08:59:30.975Z,18.81
2017-09-20T09:00:31.285Z,18.81
2017-09-20T09:01:31.284Z,18.76
2017-09-20T09:02:30.971Z,18.69
2017-09-20T09:03:31.277Z,18.7
2017-09-20T09:04:30.654Z,18.57
2017-09-20T09:05:30.959Z,18.55
2017-09-20T09:06:30.961Z,18.52
2017-09-20T09:07:30.957Z,18.48
2017-09-20T09:08:30.953Z,18.36
2017-09-20T09:09:30.950Z,18.42
2017-09-20T09:10:31.259Z,18.45
2017-09-20T09:11:31.250Z,18.37
2017-09-20T09:12:30.943Z,18.45
2017-09-20T09:13:30.939Z,18.3
2017-09-20T09:14:31.245Z,18.35
2017-09-20T09:15:30.939Z,18.39
2017-09-20T09:16:30.923Z,18.36
2017-09-20T09:17:30.925Z,18.47
2017-09-20T09:18:30.920Z,18.55
2017-09-20T09:19:30.916Z,18.44
2017-09-20T09:20:30.914Z,18.58
2017-09-20T09:21:30.910Z,18.58
2017-09-20T09:22:30.911Z,18.7
2017-09-20T09:23:30.906Z,18.78
2017-09-20T09:24:30.907Z,18.98
2017-09-20T09:25:30.899Z,18.99
2017-09-20T09:26:31.206Z,19.08
2017-09-20T09:27:30.892Z,19.28
2017-09-20T09:28:30.892Z,19.23
2017-09-20T09:29:30.581Z,19.31
2017-09-20T09:30:30.886Z,19.41
2017-09-20T09:31:30.571Z,19.55
2017-09-20T09:32:31.184Z,19.56
2017-09-20T09:33:31.186Z,19.58
2017-09-20T09:34:30.870Z,19.63
2017-09-20T09:35:31.214Z,19.58
2017-09-20T09:36:31.173Z,19.55
2017-09-20T09:37:31.169Z,19.51
2017-09-20T09:38:31.170Z,19.61
2017-09-20T09:39:31.166Z,19.63
2017-09-20T09:40:31.168Z,19.76
2017-09-20T09:41:30.852Z,19.77
2017-09-20T09:42:31.161Z,19.84
2017-09-20T09:43:31.163Z,19.94
2017-09-20T09:44:31.155Z,20.1
2017-09-20T09:45:31.158Z,20.05
2017-09-20T09:46:30.842Z,20.17
2017-09-20T09:47:30.846Z,20.17
2017-09-20T09:48:31.146Z,20.26
2017-09-20T09:49:30.836Z,20.41
2017-09-20T09:50:30.832Z,20.35
2017-09-20T09:51:30.835Z,20.57
2017-09-20T09:52:31.136Z,20.61
2017-09-20T09:53:31.132Z,20.76
2017-09-20T09:54:30.826Z,20.76
2017-09-20T09:55:30.823Z,20.87
2017-09-20T09:56:30.824Z,20.87
2017-09-20T09:57:31.130Z,20.66
2017-09-20T09:58:31.127Z,20.62
2017-09-20T09:59:30.812Z,20.55
2017-09-20T10:00:30.812Z,20.52
2017-09-20T10:01:30.812Z,20.51
2017-09-20T10:02:30.499Z,20.58
2017-09-20T10:03:30.500Z,20.57
2017-09-20T10:04:30.808Z,20.61
2017-09-20T10:05:30.802Z,20.62
2017-09-20T10:06:31.110Z,20.64
2017-09-20T10:07:31.107Z,20.73
2017-09-20T10:08:30.797Z,20.7
2017-09-20T10:09:31.103Z,20.76
2017-09-20T10:10:30.794Z,20.77
2017-09-20T10:11:30.793Z,20.89
2017-09-20T10:12:30.793Z,20.98
2017-09-20T10:13:31.100Z,21.04
2017-09-20T10:14:30.787Z,21.1
2017-09-20T10:15:30.782Z,21.1
2017-09-20T10:16:31.092Z,21.04
2017-09-20T10:17:31.101Z,21.07
2017-09-20T10:18:31.086Z,21.03
2017-09-20T10:19:31.088Z,21.01
2017-09-20T10:20:31.085Z,21.07
2017-09-20T10:21:31.080Z,21.07
2017-09-20T10:22:31.083Z,21.14
2017-09-20T10:23:31.081Z,21.07
2017-09-20T10:24:31.085Z,21.06
2017-09-20T10:25:31.084Z,21.07
2017-09-20T10:26:31.076Z,21.09
2017-09-20T10:27:31.074Z,21.12
2017-09-20T10:28:31.077Z,21.09
2017-09-20T10:29:31.073Z,21.06
2017-09-20T10:30:31.070Z,20.99
2017-09-20T10:31:31.067Z,20.77
2017-09-20T10:32:31.063Z,20.87
2017-09-20T10:33:31.063Z,20.69
2017-09-20T10:34:31.062Z,20.64
2017-09-20T10:35:31.056Z,20.66
2017-09-20T10:36:31.055Z,20.55
2017-09-20T10:37:30.742Z,20.5
2017-09-20T10:38:31.052Z,20.55
2017-09-20T10:39:30.744Z,20.51
2017-09-20T10:40:31.048Z,20.57
2017-09-20T10:41:30.743Z,20.59
2017-09-20T10:42:30.733Z,20.59
2017-09-20T10:43:30.730Z,20.69
2017-09-20T10:44:31.038Z,20.67
2017-09-20T10:45:31.035Z,20.76
2017-09-20T10:46:30.728Z,20.8
2017-09-20T10:47:31.033Z,20.79
2017-09-20T10:48:31.073Z,20.87
2017-09-20T10:49:31.027Z,20.92
2017-09-20T10:50:31.038Z,20.97
2017-09-20T10:51:30.715Z,21.04
2017-09-20T10:52:31.022Z,21.16
2017-09-20T10:53:31.018Z,21.25
2017-09-20T10:54:31.014Z,21.4
2017-09-20T10:55:31.014Z,21.56
2017-09-20T10:56:30.707Z,21.59
2017-09-20T10:57:30.705Z,21.82
2017-09-20T10:58:30.699Z,21.84
2017-09-20T10:59:30.699Z,21.98
2017-09-20T11:00:30.698Z,22
2017-09-20T11:01:31.255Z,22.09
2017-09-20T11:02:30.697Z,22.14
2017-09-20T11:03:31.007Z,22.1
2017-09-20T11:04:31.012Z,22.18
2017-09-20T11:05:30.696Z,22.22
2017-09-20T11:06:30.691Z,22.2
2017-09-20T11:07:30.693Z,22.25
2017-09-20T11:08:31.010Z,22.21
2017-09-20T11:09:30.687Z,22.25
2017-09-20T11:10:30.689Z,22.25
2017-09-20T11:11:30.688Z,22.27
2017-09-20T11:12:30.723Z,22.33
2017-09-20T11:13:30.686Z,22.37
2017-09-20T11:14:30.377Z,22.43
2017-09-20T11:15:30.685Z,22.47
2017-09-20T11:16:30.993Z,22.4
2017-09-20T11:17:30.682Z,22.39
2017-09-20T11:18:30.681Z,22.33
2017-09-20T11:19:30.686Z,22.25
2017-09-20T11:20:30.682Z,22.18
2017-09-20T11:21:30.679Z,21.99
2017-09-20T11:22:30.683Z,21.99
2017-09-20T11:23:30.678Z,21.88
2017-09-20T11:24:30.987Z,21.74
2017-09-20T11:25:30.709Z,21.59
2017-09-20T11:26:30.988Z,21.46
2017-09-20T11:27:30.676Z,21.53
2017-09-20T11:28:30.672Z,21.47
2017-09-20T11:29:30.982Z,21.47
2017-09-20T11:30:30.979Z,21.47
2017-09-20T11:31:30.666Z,21.46
2017-09-20T11:32:30.920Z,21.59
2017-09-20T11:33:30.973Z,21.74
2017-09-20T11:34:30.665Z,21.79
2017-09-20T11:35:30.663Z,21.79
2017-09-20T11:36:30.973Z,21.88
2017-09-20T11:37:30.978Z,21.86
2017-09-20T11:38:30.973Z,21.9
2017-09-20T11:39:30.972Z,21.72
2017-09-20T11:40:30.965Z,21.71
2017-09-20T11:41:30.999Z,21.54
2017-09-20T11:42:30.970Z,21.5
2017-09-20T11:43:30.656Z,21.37
2017-09-20T11:44:30.971Z,21.24
2017-09-20T11:45:30.958Z,21.25
2017-09-20T11:46:30.669Z,21.14
2017-09-20T11:47:30.957Z,21.14
2017-09-20T11:48:30.954Z,21.12
2017-09-20T11:49:30.955Z,21.1
2017-09-20T11:50:30.954Z,21.1
2017-09-20T11:51:30.951Z,21.1
2017-09-20T11:52:30.644Z,21.07
2017-09-20T11:53:30.943Z,21.21
2017-09-20T11:54:30.980Z,21.21
2017-09-20T11:55:30.950Z,21.17
2017-09-20T11:56:30.949Z,21.21
2017-09-20T11:57:30.942Z,21.13
2017-09-20T11:58:30.629Z,21.09
2017-09-20T11:59:30.934Z,21.19
2017-09-20T12:00:30.940Z,21.25
2017-09-20T12:01:30.936Z,21.17
2017-09-20T12:02:30.630Z,21.14
2017-09-20T12:03:31.185Z,21.17
2017-09-20T12:04:30.938Z,20.99
2017-09-20T12:05:30.622Z,20.91
2017-09-20T12:06:30.617Z,20.79
2017-09-20T12:07:30.924Z,20.76
2017-09-20T12:08:30.616Z,20.73
2017-09-20T12:09:30.926Z,20.66
2017-09-20T12:10:30.612Z,20.66
2017-09-20T12:11:30.609Z,20.69
2017-09-20T12:12:30.925Z,20.72
2017-09-20T12:13:30.608Z,20.8
2017-09-20T12:14:30.607Z,20.74
2017-09-20T12:15:30.917Z,20.66
2017-09-20T12:16:30.291Z,20.64
2017-09-20T12:17:30.913Z,20.52
2017-09-20T12:18:30.906Z,20.5
2017-09-20T12:19:30.907Z,20.51
2017-09-20T12:20:30.907Z,20.55
2017-09-20T12:21:30.904Z,20.57
2017-09-20T12:22:30.279Z,20.62
2017-09-20T12:23:30.904Z,20.61
2017-09-20T12:24:30.897Z,20.67
2017-09-20T12:25:30.589Z,20.7
2017-09-20T12:26:30.897Z,20.72
2017-09-20T12:27:30.890Z,20.76
2017-09-20T12:28:30.892Z,20.85
2017-09-20T12:29:30.882Z,20.94
2017-09-20T12:30:30.882Z,20.97
2017-09-20T12:31:30.880Z,20.97
2017-09-20T12:32:30.882Z,21.07
2017-09-20T12:33:30.892Z,21.12
2017-09-20T12:34:30.870Z,21.16
2017-09-20T12:35:30.875Z,21.21
2017-09-20T12:36:30.874Z,21.25
2017-09-20T12:37:30.865Z,21.17
2017-09-20T12:38:30.561Z,21.17
2017-09-20T12:39:30.865Z,21.28
2017-09-20T12:40:30.558Z,21.27
2017-09-20T12:41:30.859Z,21.37
2017-09-20T12:42:30.243Z,21.37
2017-09-20T12:43:30.877Z,21.25
2017-09-20T12:44:30.855Z,21.28
2017-09-20T12:45:30.237Z,21.35
2017-09-20T12:46:30.546Z,21.35
2017-09-20T12:47:30.854Z,21.35
2017-09-20T12:48:30.855Z,21.35
2017-09-20T12:49:30.543Z,21.37
2017-09-20T12:50:30.540Z,21.35
2017-09-20T12:51:30.849Z,21.42
2017-09-20T12:52:30.860Z,21.35
2017-09-20T12:53:30.533Z,21.21
2017-09-20T12:54:30.226Z,21.28
2017-09-20T12:55:30.531Z,21.28
2017-09-20T12:56:30.221Z,21.21
2017-09-20T12:57:30.540Z,21.21
2017-09-20T12:58:30.529Z,21.14
2017-09-20T12:59:30.526Z,21.14
2017-09-20T13:00:30.526Z,21.17
2017-09-20T13:01:30.524Z,21.19
2017-09-20T13:02:30.211Z,21.19
2017-09-20T13:03:30.829Z,21.19
2017-09-20T13:04:30.515Z,21.21